Time;durP1;ratioP1;P1;durP2;ratioP2;P2;SDS_P1;SDS_P2;PMS_P1;PMS_P2;Temp;Humidity;BMP_temperature;BMP_pressure;BME280_temperature;BME280_humidity;BME280_pressure;Samples;Min_cycle;Max_cycle;Signal;HPM_P1;HPM_P2
2021/06/11 00:00:11;;;;;;;2.65;1.50;;;;;;;;;;351834;28;1073;-65
2021/06/11 00:00:23;;;;;;;2.83;1.60;;;;;;;;;;351693;28;1116;-70
2021/06/11 00:00:35;;;;;;;2.28;1.63;;;;;;;;;;351903;28;1065;-68
2021/06/11 00:00:48;;;;;;;2.38;1.70;;;;;;;;;;351889;28;1232;-70
2021/06/11 00:01:00;;;;;;;1.90;1.67;;;;;;;;;;351892;28;1176;-70
2021/06/11 00:01:12;;;;;;;2.63;1.60;;;;;;;;;;352808;28;1149;-64
2021/06/11 00:01:24;;;;;;;3.22;1.60;;;;;;;;;;353366;27;1106;-65
2021/06/11 00:01:37;;;;;;;3.05;1.55;;;;;;;;;;353459;27;1085;-65
2021/06/11 00:01:49;;;;;;;1.75;1.45;;;;;;;;;;353509;27;1164;-66
2021/06/11 00:02:02;;;;;;;1.58;1.45;;;;;;;;;;353076;28;1701;-64
2021/06/11 00:02:15;;;;;;;1.72;1.60;;;;;;;;;;353203;28;1025;-68
2021/06/11 00:02:28;;;;;;;2.88;1.80;;;;;;;;;;353169;28;1088;-68
2021/06/11 00:02:40;;;;;;;3.35;1.80;;;;;;;;;;353245;28;1146;-66
2021/06/11 00:02:52;;;;;;;2.75;1.67;;;;;;;;;;353202;28;1227;-65
2021/06/11 00:03:04;;;;;;;2.20;1.63;;;;;;;;;;353279;28;1343;-66
2021/06/11 00:03:16;;;;;;;1.90;1.73;;;;;;;;;;353282;28;1125;-65
2021/06/11 00:03:29;;;;;;;2.13;1.80;;;;;;;;;;351762;28;1005;-71
2021/06/11 00:03:41;;;;;;;2.67;1.90;;;;;;;;;;350440;28;1034;-66
2021/06/11 00:03:53;;;;;;;2.35;1.60;;;;;;;;;;349218;28;1160;-71
2021/06/11 00:04:05;;;;;;;2.08;1.60;;;;;;;;;;349718;28;1089;-67
2021/06/11 00:04:17;;;;;;;2.08;1.60;;;;;;;;;;350713;28;1091;-68
2021/06/11 00:04:29;;;;;;;2.13;1.58;;;;;;;;;;350334;28;1120;-72
2021/06/11 00:04:41;;;;;;;1.98;1.55;;;;;;;;;;350550;28;1125;-71
2021/06/11 00:04:54;;;;;;;1.80;1.60;;;;;;;;;;350413;28;1190;-68
2021/06/11 00:05:07;;;;;;;2.60;1.52;;;;;;;;;;350437;28;1116;-66
2021/06/11 00:05:20;;;;;;;3.55;1.50;;;;;;;;;;350564;28;1105;-66
2021/06/11 00:05:32;;;;;;;2.78;1.52;;;;;;;;;;351460;28;1054;-65
2021/06/11 00:05:44;;;;;;;2.08;1.60;;;;;;;;;;352831;28;982;-65
2021/06/11 00:05:56;;;;;;;2.97;2.22;;;;;;;;;;353228;28;1162;-68
2021/06/11 00:06:09;;;;;;;3.35;2.58;;;;;;;;;;351852;28;1149;-68
2021/06/11 00:06:21;;;;;;;3.05;2.47;;;;;;;;;;351535;28;1246;-67
2021/06/11 00:06:35;;;;;;;2.80;2.10;;;;;;;;;;351840;28;1090;-67
2021/06/11 00:06:51;;;;;;;2.65;1.80;;;;;;;;;;349702;28;63730;-70
2021/06/11 00:07:03;;;;;;;2.33;1.65;;;;;;;;;;351867;28;1148;-65
2021/06/11 00:07:15;;;;;;;1.65;1.48;;;;;;;;;;350879;28;1718;-64
2021/06/11 00:07:27;;;;;;;2.03;1.50;;;;;;;;;;351293;28;1667;-68
2021/06/11 00:07:40;;;;;;;2.67;1.58;;;;;;;;;;353125;28;1084;-66
2021/06/11 00:07:52;;;;;;;3.28;1.54;;;;;;;;;;353116;28;1068;-67
2021/06/11 00:08:05;;;;;;;3.03;1.60;;;;;;;;;;353174;28;1430;-65
2021/06/11 00:08:17;;;;;;;2.10;1.55;;;;;;;;;;353525;27;1078;-66
2021/06/11 00:08:30;;;;;;;2.83;1.60;;;;;;;;;;353531;27;1168;-67
2021/06/11 00:08:43;;;;;;;2.90;1.80;;;;;;;;;;352917;27;17903;-67
2021/06/11 00:08:55;;;;;;;1.70;1.60;;;;;;;;;;353127;28;1203;-65
2021/06/11 00:09:07;;;;;;;1.95;1.58;;;;;;;;;;353328;28;1097;-67
2021/06/11 00:09:19;;;;;;;2.25;1.60;;;;;;;;;;353255;28;1102;-64
2021/06/11 00:09:32;;;;;;;2.67;1.60;;;;;;;;;;353070;28;1092;-64
2021/06/11 00:09:44;;;;;;;2.42;1.63;;;;;;;;;;353137;28;1172;-65
2021/06/11 00:09:56;;;;;;;2.83;1.65;;;;;;;;;;351924;28;1054;-65
2021/06/11 00:10:11;;;;;;;2.33;1.70;;;;;;;;;;352075;28;973;-65
2021/06/11 00:10:23;;;;;;;2.08;1.60;;;;;;;;;;351208;28;18159;-64
2021/06/11 00:10:36;;;;;;;2.72;1.58;;;;;;;;;;351751;28;1114;-71
2021/06/11 00:10:48;;;;;;;3.25;1.50;;;;;;;;;;351833;28;1168;-64
2021/06/11 00:11:00;;;;;;;3.17;1.50;;;;;;;;;;353344;28;1109;-65
2021/06/11 00:11:12;;;;;;;3.00;1.50;;;;;;;;;;353338;28;1064;-65
2021/06/11 00:11:25;;;;;;;2.30;1.55;;;;;;;;;;353260;28;1004;-65
2021/06/11 00:11:37;;;;;;;3.47;1.65;;;;;;;;;;353246;28;1105;-64
2021/06/11 00:11:49;;;;;;;3.10;1.60;;;;;;;;;;353197;28;1049;-65
2021/06/11 00:12:01;;;;;;;2.28;1.52;;;;;;;;;;353230;27;1097;-69
2021/06/11 00:12:14;;;;;;;2.83;1.67;;;;;;;;;;353471;27;1015;-64
2021/06/11 00:12:26;;;;;;;2.53;1.52;;;;;;;;;;353265;28;993;-64
2021/06/11 00:12:39;;;;;;;1.88;1.46;;;;;;;;;;353354;28;1554;-65
2021/06/11 00:12:51;;;;;;;1.92;1.50;;;;;;;;;;353052;28;1317;-70
2021/06/11 00:13:04;;;;;;;2.42;1.60;;;;;;;;;;353238;28;1096;-64
2021/06/11 00:13:16;;;;;;;2.85;1.63;;;;;;;;;;353208;28;1079;-65
2021/06/11 00:13:29;;;;;;;2.55;1.70;;;;;;;;;;353328;28;1085;-67
2021/06/11 00:13:41;;;;;;;2.42;1.60;;;;;;;;;;353249;28;1168;-65
2021/06/11 00:13:53;;;;;;;4.30;1.63;;;;;;;;;;353227;28;1128;-70
2021/06/11 00:14:05;;;;;;;5.38;1.67;;;;;;;;;;353268;28;993;-64
2021/06/11 00:14:17;;;;;;;3.30;1.60;;;;;;;;;;353173;28;1165;-64
2021/06/11 00:14:29;;;;;;;2.30;1.58;;;;;;;;;;353464;28;1102;-68
2021/06/11 00:14:42;;;;;;;2.40;1.60;;;;;;;;;;353416;27;1188;-67
2021/06/11 00:14:54;;;;;;;2.80;1.70;;;;;;;;;;353473;27;1037;-65
2021/06/11 00:15:07;;;;;;;3.25;1.67;;;;;;;;;;353349;27;1002;-67
2021/06/11 00:15:19;;;;;;;2.88;1.50;;;;;;;;;;353476;27;1159;-65
2021/06/11 00:15:31;;;;;;;2.88;1.58;;;;;;;;;;353530;27;1164;-68
2021/06/11 00:15:43;;;;;;;2.30;1.50;;;;;;;;;;353311;27;1132;-66
2021/06/11 00:15:56;;;;;;;2.63;1.60;;;;;;;;;;353511;27;1941;-65
2021/06/11 00:16:08;;;;;;;3.28;1.60;;;;;;;;;;353449;27;1080;-65
2021/06/11 00:16:20;;;;;;;3.80;1.70;;;;;;;;;;353351;28;1212;-65
2021/06/11 00:16:32;;;;;;;3.13;1.67;;;;;;;;;;353164;28;1156;-65
2021/06/11 00:16:45;;;;;;;2.88;1.40;;;;;;;;;;353251;28;1113;-65
2021/06/11 00:17:00;;;;;;;3.35;1.50;;;;;;;;;;353178;28;1093;-67
2021/06/11 00:17:12;;;;;;;3.78;1.60;;;;;;;;;;351867;28;39743;-65
2021/06/11 00:17:24;;;;;;;3.40;1.60;;;;;;;;;;351701;28;1074;-65
2021/06/11 00:17:36;;;;;;;3.05;1.55;;;;;;;;;;351818;28;1176;-68
2021/06/11 00:17:48;;;;;;;2.47;1.60;;;;;;;;;;351468;28;1742;-65
2021/06/11 00:18:01;;;;;;;2.38;1.60;;;;;;;;;;350256;28;1681;-65
2021/06/11 00:18:13;;;;;;;2.35;1.60;;;;;;;;;;351885;28;1081;-65
2021/06/11 00:18:25;;;;;;;2.17;1.60;;;;;;;;;;351550;28;1993;-69
2021/06/11 00:18:37;;;;;;;2.17;1.60;;;;;;;;;;351843;28;1175;-66
2021/06/11 00:18:49;;;;;;;2.00;1.50;;;;;;;;;;351714;28;1132;-65
2021/06/11 00:19:01;;;;;;;1.77;1.45;;;;;;;;;;351769;28;1109;-66
2021/06/11 00:19:14;;;;;;;2.40;1.60;;;;;;;;;;351805;28;1138;-66
2021/06/11 00:19:26;;;;;;;2.50;1.70;;;;;;;;;;352956;27;1323;-68
2021/06/11 00:19:38;;;;;;;2.35;1.70;;;;;;;;;;353488;27;1137;-64
2021/06/11 00:19:50;;;;;;;2.55;1.60;;;;;;;;;;353492;27;1105;-64
2021/06/11 00:20:06;;;;;;;2.70;1.70;;;;;;;;;;353461;27;1253;-64
2021/06/11 00:20:18;;;;;;;1.88;1.68;;;;;;;;;;352207;27;40209;-65
2021/06/11 00:20:31;;;;;;;2.50;1.73;;;;;;;;;;352213;28;1095;-66
2021/06/11 00:20:43;;;;;;;3.05;1.70;;;;;;;;;;350480;28;1239;-68
2021/06/11 00:20:57;;;;;;;2.50;1.70;;;;;;;;;;350839;28;1144;-66
2021/06/11 00:21:09;;;;;;;1.83;1.50;;;;;;;;;;350765;28;990;-65
2021/06/11 00:21:21;;;;;;;2.00;1.48;;;;;;;;;;350568;28;1061;-65
2021/06/11 00:21:33;;;;;;;2.97;1.60;;;;;;;;;;352291;28;1002;-66
2021/06/11 00:21:45;;;;;;;3.08;1.70;;;;;;;;;;352023;28;1199;-68
2021/06/11 00:21:58;;;;;;;2.60;1.65;;;;;;;;;;352002;28;1102;-69
2021/06/11 00:22:10;;;;;;;2.35;1.55;;;;;;;;;;352206;28;1332;-64
2021/06/11 00:22:22;;;;;;;2.70;1.42;;;;;;;;;;351978;28;1258;-64
2021/06/11 00:22:37;;;;;;;2.85;1.50;;;;;;;;;;351785;28;1157;-64
2021/06/11 00:22:49;;;;;;;2.65;1.50;;;;;;;;;;351425;28;15859;-69
2021/06/11 00:23:02;;;;;;;2.45;1.48;;;;;;;;;;353566;27;985;-68
2021/06/11 00:23:14;;;;;;;2.28;1.50;;;;;;;;;;353567;27;1201;-65
2021/06/11 00:23:26;;;;;;;1.88;1.50;;;;;;;;;;353494;27;1033;-67
2021/06/11 00:23:38;;;;;;;2.15;1.52;;;;;;;;;;353501;27;1207;-65
2021/06/11 00:23:50;;;;;;;1.77;1.40;;;;;;;;;;353512;27;1110;-65
2021/06/11 00:24:03;;;;;;;1.70;1.33;;;;;;;;;;353404;27;1078;-65
2021/06/11 00:24:15;;;;;;;2.67;1.35;;;;;;;;;;353648;27;1068;-65
2021/06/11 00:24:27;;;;;;;2.80;1.40;;;;;;;;;;353835;27;1183;-65
2021/06/11 00:24:39;;;;;;;2.47;1.50;;;;;;;;;;353602;27;1083;-69
2021/06/11 00:24:51;;;;;;;2.42;1.52;;;;;;;;;;353604;27;1284;-68
2021/06/11 00:25:07;;;;;;;2.62;1.66;;;;;;;;;;353465;27;2142;-72
2021/06/11 00:25:22;;;;;;;2.58;1.50;;;;;;;;;;351264;27;62691;-66
2021/06/11 00:25:34;;;;;;;2.62;1.54;;;;;;;;;;353083;27;18017;-65
2021/06/11 00:25:47;;;;;;;2.38;1.60;;;;;;;;;;353343;27;1291;-65
2021/06/11 00:25:59;;;;;;;2.20;1.60;;;;;;;;;;353642;27;1297;-67
2021/06/11 00:26:11;;;;;;;2.55;1.70;;;;;;;;;;353487;27;1148;-66
2021/06/11 00:26:23;;;;;;;2.63;1.63;;;;;;;;;;353462;27;1095;-65
2021/06/11 00:26:35;;;;;;;1.77;1.48;;;;;;;;;;353983;27;1112;-67
2021/06/11 00:26:47;;;;;;;1.73;1.40;;;;;;;;;;353543;27;2067;-73
2021/06/11 00:27:00;;;;;;;2.00;1.35;;;;;;;;;;352207;28;1066;-65
2021/06/11 00:27:12;;;;;;;1.90;1.35;;;;;;;;;;351993;28;1080;-69
2021/06/11 00:27:24;;;;;;;1.45;1.35;;;;;;;;;;350750;28;1074;-67
2021/06/11 00:27:36;;;;;;;2.10;1.50;;;;;;;;;;350753;28;1177;-65
2021/06/11 00:27:49;;;;;;;2.33;1.60;;;;;;;;;;350590;28;1082;-66
2021/06/11 00:28:02;;;;;;;2.50;1.67;;;;;;;;;;350195;28;16701;-67
2021/06/11 00:28:14;;;;;;;2.00;1.50;;;;;;;;;;351580;28;1034;-66
2021/06/11 00:28:26;;;;;;;1.85;1.60;;;;;;;;;;351998;28;1749;-69
2021/06/11 00:28:38;;;;;;;2.30;1.60;;;;;;;;;;350476;28;1662;-65
2021/06/11 00:28:50;;;;;;;2.55;1.63;;;;;;;;;;350796;28;1068;-65
2021/06/11 00:29:02;;;;;;;3.14;1.60;;;;;;;;;;350250;28;1075;-66
2021/06/11 00:29:14;;;;;;;2.95;1.58;;;;;;;;;;350572;28;989;-65
2021/06/11 00:29:26;;;;;;;1.63;1.52;;;;;;;;;;351668;28;1109;-65
2021/06/11 00:29:38;;;;;;;2.00;1.60;;;;;;;;;;352010;28;1314;-66
2021/06/11 00:29:51;;;;;;;2.00;1.60;;;;;;;;;;352107;28;1006;-66
2021/06/11 00:30:04;;;;;;;1.73;1.40;;;;;;;;;;352030;28;1057;-66
2021/06/11 00:30:16;;;;;;;2.42;1.50;;;;;;;;;;352086;28;1242;-65
2021/06/11 00:30:29;;;;;;;3.40;1.50;;;;;;;;;;352035;28;1249;-66
2021/06/11 00:30:42;;;;;;;3.20;1.50;;;;;;;;;;351975;28;1098;-64
2021/06/11 00:30:54;;;;;;;2.20;1.60;;;;;;;;;;351945;28;1082;-66
2021/06/11 00:31:06;;;;;;;2.70;1.70;;;;;;;;;;352182;28;985;-69
2021/06/11 00:31:19;;;;;;;2.72;1.65;;;;;;;;;;352451;28;956;-65
2021/06/11 00:31:31;;;;;;;2.58;1.80;;;;;;;;;;352166;28;993;-67
2021/06/11 00:31:43;;;;;;;2.20;1.70;;;;;;;;;;352164;28;1943;-66
2021/06/11 00:31:55;;;;;;;2.13;1.65;;;;;;;;;;350471;28;1090;-67
2021/06/11 00:32:08;;;;;;;2.25;1.55;;;;;;;;;;350759;28;1105;-70
2021/06/11 00:32:20;;;;;;;3.38;1.58;;;;;;;;;;350602;28;1090;-65
2021/06/11 00:32:32;;;;;;;2.90;1.50;;;;;;;;;;350568;28;1165;-66
2021/06/11 00:32:45;;;;;;;2.13;1.40;;;;;;;;;;350738;28;1106;-65
2021/06/11 00:32:57;;;;;;;1.88;1.40;;;;;;;;;;350702;28;1173;-66
2021/06/11 00:33:10;;;;;;;1.90;1.40;;;;;;;;;;350673;28;1066;-70
2021/06/11 00:33:23;;;;;;;2.17;1.40;;;;;;;;;;350541;28;16822;-66
2021/06/11 00:33:35;;;;;;;2.38;1.40;;;;;;;;;;351811;28;1083;-67
2021/06/11 00:33:47;;;;;;;2.30;1.40;;;;;;;;;;352060;28;1097;-67
2021/06/11 00:33:59;;;;;;;1.92;1.50;;;;;;;;;;352283;28;1098;-65
2021/06/11 00:34:11;;;;;;;1.90;1.50;;;;;;;;;;352437;28;1178;-66
2021/06/11 00:34:24;;;;;;;1.95;1.45;;;;;;;;;;352338;28;1109;-68
2021/06/11 00:34:36;;;;;;;1.98;1.48;;;;;;;;;;352331;28;1148;-66
2021/06/11 00:34:48;;;;;;;2.45;1.40;;;;;;;;;;350960;28;1503;-66
2021/06/11 00:35:00;;;;;;;2.30;1.40;;;;;;;;;;350915;28;1177;-66
2021/06/11 00:35:12;;;;;;;1.92;1.33;;;;;;;;;;350640;28;1694;-66
2021/06/11 00:35:25;;;;;;;1.90;1.33;;;;;;;;;;350723;28;1098;-66
2021/06/11 00:35:37;;;;;;;2.40;1.38;;;;;;;;;;350621;28;1079;-71
2021/06/11 00:35:49;;;;;;;2.70;1.30;;;;;;;;;;350634;28;1165;-65
2021/06/11 00:36:02;;;;;;;2.38;1.40;;;;;;;;;;350725;28;1093;-63
2021/06/11 00:36:14;;;;;;;2.22;1.60;;;;;;;;;;351174;28;1097;-63
2021/06/11 00:36:26;;;;;;;2.15;1.50;;;;;;;;;;350609;28;1184;-64
2021/06/11 00:36:38;;;;;;;1.98;1.60;;;;;;;;;;350692;28;1054;-64
2021/06/11 00:36:50;;;;;;;1.92;1.70;;;;;;;;;;350550;28;1080;-63
2021/06/11 00:37:02;;;;;;;2.50;1.63;;;;;;;;;;350651;28;1017;-64
2021/06/11 00:37:14;;;;;;;2.63;1.45;;;;;;;;;;350630;28;1038;-64
2021/06/11 00:37:27;;;;;;;2.55;1.50;;;;;;;;;;350828;28;1101;-66
2021/06/11 00:37:39;;;;;;;2.35;1.63;;;;;;;;;;350799;28;1136;-63
2021/06/11 00:37:51;;;;;;;2.70;1.70;;;;;;;;;;350936;28;1121;-66
2021/06/11 00:38:04;;;;;;;2.03;1.58;;;;;;;;;;350842;28;1126;-68
2021/06/11 00:38:16;;;;;;;1.42;1.30;;;;;;;;;;350951;28;1184;-67
2021/06/11 00:38:31;;;;;;;1.45;1.35;;;;;;;;;;350738;28;993;-64
2021/06/11 00:38:43;;;;;;;2.05;1.40;;;;;;;;;;350233;28;17123;-67
2021/06/11 00:38:55;;;;;;;2.35;1.42;;;;;;;;;;350566;28;1058;-64
2021/06/11 00:39:07;;;;;;;2.03;1.40;;;;;;;;;;350642;28;1746;-68
2021/06/11 00:39:19;;;;;;;1.55;1.40;;;;;;;;;;350748;28;1533;-66
2021/06/11 00:39:31;;;;;;;2.85;1.25;;;;;;;;;;350573;28;1009;-65
2021/06/11 00:39:43;;;;;;;3.13;1.25;;;;;;;;;;350703;28;1097;-65
2021/06/11 00:39:55;;;;;;;3.85;1.50;;;;;;;;;;350914;28;1616;-64
2021/06/11 00:40:09;;;;;;;3.00;1.70;;;;;;;;;;350494;28;1992;-68
2021/06/11 00:40:24;;;;;;;1.80;1.60;;;;;;;;;;348879;28;62735;-65
2021/06/11 00:40:37;;;;;;;1.52;1.40;;;;;;;;;;350721;28;1106;-65
2021/06/11 00:40:49;;;;;;;1.42;1.20;;;;;;;;;;352003;28;1181;-64
2021/06/11 00:41:01;;;;;;;1.38;1.15;;;;;;;;;;352110;28;1067;-67
2021/06/11 00:41:13;;;;;;;1.85;1.20;;;;;;;;;;352080;28;1079;-64
2021/06/11 00:41:25;;;;;;;1.65;1.20;;;;;;;;;;352225;28;1117;-68
2021/06/11 00:41:37;;;;;;;2.58;1.40;;;;;;;;;;352141;28;1157;-66
2021/06/11 00:41:49;;;;;;;2.60;1.50;;;;;;;;;;352096;28;1436;-65
2021/06/11 00:42:03;;;;;;;2.05;1.42;;;;;;;;;;350818;28;1070;-65
2021/06/11 00:42:15;;;;;;;1.80;1.42;;;;;;;;;;350271;28;16700;-65
2021/06/11 00:42:28;;;;;;;1.83;1.52;;;;;;;;;;350805;28;1080;-68
2021/06/11 00:42:40;;;;;;;1.83;1.50;;;;;;;;;;350704;28;1084;-64
2021/06/11 00:42:52;;;;;;;2.42;1.40;;;;;;;;;;350608;28;1125;-65
2021/06/11 00:43:05;;;;;;;3.63;1.42;;;;;;;;;;350725;28;1070;-65
2021/06/11 00:43:18;;;;;;;3.20;1.50;;;;;;;;;;350613;28;1097;-64
2021/06/11 00:43:30;;;;;;;2.34;1.50;;;;;;;;;;350583;28;953;-68
2021/06/11 00:43:42;;;;;;;2.13;1.45;;;;;;;;;;351676;28;1053;-65
2021/06/11 00:43:54;;;;;;;1.60;1.45;;;;;;;;;;352090;28;1133;-64
2021/06/11 00:44:06;;;;;;;2.17;1.50;;;;;;;;;;353229;27;1026;-64
2021/06/11 00:44:18;;;;;;;2.10;1.40;;;;;;;;;;352545;27;1113;-64
2021/06/11 00:44:30;;;;;;;2.00;1.50;;;;;;;;;;352369;28;980;-64
2021/06/11 00:44:43;;;;;;;1.98;1.40;;;;;;;;;;352109;28;1096;-66
2021/06/11 00:44:55;;;;;;;2.00;1.40;;;;;;;;;;352007;28;1100;-66
2021/06/11 00:45:08;;;;;;;1.42;1.30;;;;;;;;;;352071;28;1049;-64
2021/06/11 00:45:20;;;;;;;2.15;1.55;;;;;;;;;;352154;28;1301;-65
2021/06/11 00:45:32;;;;;;;2.60;1.63;;;;;;;;;;352216;28;1100;-64
2021/06/11 00:45:45;;;;;;;2.35;1.60;;;;;;;;;;352177;28;1026;-64
2021/06/11 00:45:57;;;;;;;1.65;1.33;;;;;;;;;;351992;28;1069;-66
2021/06/11 00:46:10;;;;;;;1.58;1.30;;;;;;;;;;352229;28;1504;-64
2021/06/11 00:46:22;;;;;;;1.90;1.40;;;;;;;;;;351937;28;1261;-66
2021/06/11 00:46:34;;;;;;;1.60;1.30;;;;;;;;;;352077;28;1072;-68
2021/06/11 00:46:46;;;;;;;2.00;1.30;;;;;;;;;;352100;28;1148;-65
2021/06/11 00:46:59;;;;;;;2.03;1.30;;;;;;;;;;352176;28;1160;-65
2021/06/11 00:47:11;;;;;;;1.98;1.27;;;;;;;;;;352057;28;1128;-68
2021/06/11 00:47:23;;;;;;;2.30;1.38;;;;;;;;;;352185;28;1098;-66
2021/06/11 00:47:35;;;;;;;2.40;1.40;;;;;;;;;;352002;28;1160;-67
2021/06/11 00:47:48;;;;;;;2.38;1.40;;;;;;;;;;352062;28;1184;-65
2021/06/11 00:48:00;;;;;;;1.70;1.38;;;;;;;;;;351966;28;1011;-68
2021/06/11 00:48:12;;;;;;;1.80;1.25;;;;;;;;;;351844;28;1266;-68
2021/06/11 00:48:24;;;;;;;2.28;1.27;;;;;;;;;;350558;28;993;-64
2021/06/11 00:48:36;;;;;;;2.35;1.40;;;;;;;;;;350714;28;1179;-67
2021/06/11 00:48:48;;;;;;;2.58;1.20;;;;;;;;;;350997;28;1041;-64
2021/06/11 00:49:01;;;;;;;2.40;1.20;;;;;;;;;;350613;28;1034;-67
2021/06/11 00:49:13;;;;;;;2.38;1.27;;;;;;;;;;351884;28;935;-67
2021/06/11 00:49:25;;;;;;;2.90;1.30;;;;;;;;;;352111;28;1180;-65
2021/06/11 00:49:38;;;;;;;2.88;1.38;;;;;;;;;;352056;28;1183;-66
2021/06/11 00:49:50;;;;;;;2.80;1.50;;;;;;;;;;349802;28;1770;-65
2021/06/11 00:50:03;;;;;;;2.20;1.50;;;;;;;;;;350147;28;1682;-66
2021/06/11 00:50:21;;;;;;;1.75;1.25;;;;;;;;;;350717;28;1018;-68
2021/06/11 00:50:35;;;;;;;2.17;1.20;;;;;;;;;;349849;28;63570;-64
2021/06/11 00:50:47;;;;;;;2.08;1.33;;;;;;;;;;350538;28;17012;-65
2021/06/11 00:50:59;;;;;;;1.50;1.40;;;;;;;;;;350881;28;1389;-65
2021/06/11 00:51:11;;;;;;;1.42;1.30;;;;;;;;;;350705;28;1102;-67
2021/06/11 00:51:23;;;;;;;2.17;1.30;;;;;;;;;;350800;28;1118;-64
2021/06/11 00:51:36;;;;;;;2.65;1.35;;;;;;;;;;350681;28;986;-68
2021/06/11 00:51:48;;;;;;;2.60;1.33;;;;;;;;;;351020;28;1088;-66
2021/06/11 00:52:00;;;;;;;2.13;1.20;;;;;;;;;;352190;28;1097;-67
2021/06/11 00:52:12;;;;;;;1.92;1.30;;;;;;;;;;351958;28;1236;-65
2021/06/11 00:52:24;;;;;;;1.80;1.30;;;;;;;;;;352080;28;1106;-65
2021/06/11 00:52:38;;;;;;;1.58;1.30;;;;;;;;;;352144;28;1274;-64
2021/06/11 00:52:51;;;;;;;1.45;1.35;;;;;;;;;;352601;27;16629;-66
2021/06/11 00:53:07;;;;;;;1.42;1.33;;;;;;;;;;352416;28;1066;-66
2021/06/11 00:53:19;;;;;;;1.60;1.30;;;;;;;;;;350050;28;62792;-65
2021/06/11 00:53:31;;;;;;;1.70;1.30;;;;;;;;;;352266;28;1172;-66
2021/06/11 00:53:43;;;;;;;1.50;1.40;;;;;;;;;;352377;28;1093;-65
2021/06/11 00:53:56;;;;;;;1.67;1.40;;;;;;;;;;352243;28;1105;-65
2021/06/11 00:54:08;;;;;;;1.60;1.40;;;;;;;;;;352295;28;1208;-65
2021/06/11 00:54:20;;;;;;;1.65;1.35;;;;;;;;;;352166;28;1266;-65
2021/06/11 00:54:34;;;;;;;2.13;1.50;;;;;;;;;;352440;28;1183;-65
2021/06/11 00:54:46;;;;;;;2.75;1.70;;;;;;;;;;352275;28;1217;-67
2021/06/11 00:54:58;;;;;;;2.80;1.65;;;;;;;;;;352296;28;1174;-64
2021/06/11 00:55:11;;;;;;;2.80;1.85;;;;;;;;;;352120;28;1190;-65
2021/06/11 00:55:23;;;;;;;2.42;2.00;;;;;;;;;;352215;28;1097;-66
2021/06/11 00:55:35;;;;;;;2.33;2.08;;;;;;;;;;352297;28;1066;-65
2021/06/11 00:55:48;;;;;;;2.50;1.98;;;;;;;;;;352397;28;1207;-64
2021/06/11 00:56:00;;;;;;;2.03;1.73;;;;;;;;;;352038;28;1033;-64
2021/06/11 00:56:12;;;;;;;1.80;1.50;;;;;;;;;;350701;28;1238;-65
2021/06/11 00:56:24;;;;;;;2.08;1.40;;;;;;;;;;350772;28;1103;-65
2021/06/11 00:56:36;;;;;;;2.40;1.40;;;;;;;;;;350734;28;1110;-65
2021/06/11 00:56:49;;;;;;;2.50;1.52;;;;;;;;;;350701;28;1120;-71
2021/06/11 00:57:01;;;;;;;1.77;1.50;;;;;;;;;;349310;28;1268;-66
2021/06/11 00:57:14;;;;;;;1.90;1.42;;;;;;;;;;349266;28;1005;-64
2021/06/11 00:57:27;;;;;;;2.02;1.30;;;;;;;;;;349354;28;1093;-65
2021/06/11 00:57:39;;;;;;;1.88;1.23;;;;;;;;;;349234;28;1030;-64
2021/06/11 00:57:51;;;;;;;1.58;1.20;;;;;;;;;;349382;28;1086;-69
2021/06/11 00:58:03;;;;;;;2.40;1.40;;;;;;;;;;350327;28;1168;-64
2021/06/11 00:58:16;;;;;;;2.45;1.50;;;;;;;;;;351711;28;1140;-66
2021/06/11 00:58:28;;;;;;;2.38;1.45;;;;;;;;;;352154;28;1013;-65
2021/06/11 00:58:40;;;;;;;1.90;1.40;;;;;;;;;;352498;28;1167;-65
2021/06/11 00:58:52;;;;;;;2.33;1.30;;;;;;;;;;352107;28;1243;-68
2021/06/11 00:59:04;;;;;;;2.65;1.30;;;;;;;;;;351954;28;1249;-64
2021/06/11 00:59:18;;;;;;;3.33;1.30;;;;;;;;;;352088;28;982;-65
2021/06/11 00:59:30;;;;;;;3.13;1.27;;;;;;;;;;351542;28;17103;-64
2021/06/11 00:59:45;;;;;;;2.20;1.30;;;;;;;;;;351937;28;1118;-65
2021/06/11 00:59:57;;;;;;;1.98;1.35;;;;;;;;;;350599;28;41045;-64
2021/06/11 01:00:10;;;;;;;1.58;1.20;;;;;;;;;;352391;28;1101;-69
2021/06/11 01:00:22;;;;;;;2.47;1.30;;;;;;;;;;352275;28;1041;-66
2021/06/11 01:00:34;;;;;;;3.08;1.40;;;;;;;;;;351740;28;1725;-65
2021/06/11 01:00:48;;;;;;;2.75;1.40;;;;;;;;;;350945;28;1000;-66
2021/06/11 01:01:00;;;;;;;2.00;1.25;;;;;;;;;;350753;28;1110;-72
2021/06/11 01:01:12;;;;;;;1.52;1.10;;;;;;;;;;350860;28;1160;-65
2021/06/11 01:01:25;;;;;;;2.08;1.13;;;;;;;;;;350841;28;1038;-65
2021/06/11 01:01:37;;;;;;;2.28;1.23;;;;;;;;;;351139;28;1102;-64
2021/06/11 01:01:49;;;;;;;2.65;1.30;;;;;;;;;;350842;28;1113;-64
2021/06/11 01:02:01;;;;;;;2.15;1.38;;;;;;;;;;350723;28;1173;-64
2021/06/11 01:02:15;;;;;;;2.42;1.50;;;;;;;;;;350936;28;1080;-66
2021/06/11 01:02:28;;;;;;;2.22;1.40;;;;;;;;;;350394;28;17016;-69
2021/06/11 01:02:40;;;;;;;2.17;1.40;;;;;;;;;;350755;28;1058;-67
2021/06/11 01:02:52;;;;;;;2.70;1.35;;;;;;;;;;351968;28;1088;-65
2021/06/11 01:03:04;;;;;;;2.80;1.33;;;;;;;;;;351893;28;1083;-66
2021/06/11 01:03:18;;;;;;;2.33;1.35;;;;;;;;;;352149;28;1188;-64
2021/06/11 01:03:30;;;;;;;2.20;1.45;;;;;;;;;;351460;28;17591;-64
2021/06/11 01:03:42;;;;;;;2.05;1.52;;;;;;;;;;351854;28;1157;-65
2021/06/11 01:03:54;;;;;;;1.80;1.40;;;;;;;;;;352076;28;1197;-68
2021/06/11 01:04:06;;;;;;;1.73;1.33;;;;;;;;;;350792;28;1160;-65
2021/06/11 01:04:18;;;;;;;1.60;1.20;;;;;;;;;;351572;28;1700;-65
2021/06/11 01:04:31;;;;;;;1.95;1.30;;;;;;;;;;351868;28;1690;-64
2021/06/11 01:04:43;;;;;;;1.75;1.38;;;;;;;;;;352408;28;1123;-67
2021/06/11 01:04:56;;;;;;;1.65;1.30;;;;;;;;;;352496;28;1160;-64
2021/06/11 01:05:08;;;;;;;1.65;1.38;;;;;;;;;;352110;28;1131;-67
2021/06/11 01:05:20;;;;;;;1.90;1.30;;;;;;;;;;352138;28;1089;-64
2021/06/11 01:05:32;;;;;;;2.67;1.38;;;;;;;;;;352032;28;1090;-71
2021/06/11 01:05:45;;;;;;;2.88;1.30;;;;;;;;;;352027;28;1131;-64
2021/06/11 01:05:57;;;;;;;2.15;1.30;;;;;;;;;;351948;28;1033;-64
2021/06/11 01:06:09;;;;;;;2.90;1.40;;;;;;;;;;352067;28;1100;-72
2021/06/11 01:06:22;;;;;;;3.25;1.45;;;;;;;;;;352141;28;1168;-67
2021/06/11 01:06:35;;;;;;;3.60;1.33;;;;;;;;;;352048;28;1070;-65
2021/06/11 01:06:48;;;;;;;2.53;1.40;;;;;;;;;;350910;28;1176;-64
2021/06/11 01:07:01;;;;;;;1.68;1.40;;;;;;;;;;350853;28;1227;-64
2021/06/11 01:07:13;;;;;;;1.60;1.40;;;;;;;;;;350852;28;1046;-64
2021/06/11 01:07:25;;;;;;;1.45;1.33;;;;;;;;;;350722;28;1251;-64
2021/06/11 01:07:39;;;;;;;1.52;1.30;;;;;;;;;;350900;28;1176;-64
2021/06/11 01:07:52;;;;;;;2.10;1.23;;;;;;;;;;350325;28;17079;-69
2021/06/11 01:08:06;;;;;;;2.15;1.17;;;;;;;;;;350847;28;1114;-64
2021/06/11 01:08:18;;;;;;;2.35;1.15;;;;;;;;;;350147;28;16637;-63
2021/06/11 01:08:30;;;;;;;1.92;1.20;;;;;;;;;;350831;28;1077;-64
2021/06/11 01:08:42;;;;;;;1.70;1.30;;;;;;;;;;350934;28;1116;-65
2021/06/11 01:08:55;;;;;;;1.55;1.30;;;;;;;;;;350822;28;1171;-64
2021/06/11 01:09:08;;;;;;;1.73;1.38;;;;;;;;;;351005;28;1137;-64
2021/06/11 01:09:20;;;;;;;2.25;1.20;;;;;;;;;;350791;28;1105;-68
2021/06/11 01:09:36;;;;;;;2.00;1.10;;;;;;;;;;350786;28;1156;-65
2021/06/11 01:09:48;;;;;;;1.50;1.35;;;;;;;;;;348695;28;63068;-64
2021/06/11 01:10:01;;;;;;;1.60;1.50;;;;;;;;;;350937;28;1168;-64
2021/06/11 01:10:13;;;;;;;1.52;1.40;;;;;;;;;;350764;28;1022;-63
2021/06/11 01:10:25;;;;;;;2.28;1.40;;;;;;;;;;350979;28;1064;-64
2021/06/11 01:10:38;;;;;;;2.78;1.50;;;;;;;;;;350860;28;914;-64
2021/06/11 01:10:50;;;;;;;2.42;1.50;;;;;;;;;;350945;28;1060;-64
2021/06/11 01:11:02;;;;;;;1.77;1.40;;;;;;;;;;350916;28;1098;-65
2021/06/11 01:11:15;;;;;;;1.60;1.30;;;;;;;;;;351068;28;1447;-66
2021/06/11 01:11:27;;;;;;;1.73;1.35;;;;;;;;;;352214;27;1663;-66
2021/06/11 01:11:40;;;;;;;2.17;1.30;;;;;;;;;;352054;28;1330;-66
2021/06/11 01:11:53;;;;;;;2.78;1.20;;;;;;;;;;352328;27;1176;-64
2021/06/11 01:12:05;;;;;;;2.35;1.30;;;;;;;;;;352048;28;1108;-64
2021/06/11 01:12:17;;;;;;;1.80;1.23;;;;;;;;;;352041;28;1075;-64
2021/06/11 01:12:31;;;;;;;1.50;1.20;;;;;;;;;;351965;28;1000;-64
2021/06/11 01:12:45;;;;;;;1.60;1.20;;;;;;;;;;352045;28;981;-66
2021/06/11 01:12:57;;;;;;;1.48;1.33;;;;;;;;;;351451;28;17082;-64
2021/06/11 01:13:10;;;;;;;1.48;1.30;;;;;;;;;;352103;28;1109;-67
2021/06/11 01:13:22;;;;;;;1.50;1.15;;;;;;;;;;350604;28;1180;-65
2021/06/11 01:13:34;;;;;;;1.90;1.10;;;;;;;;;;349255;28;1093;-65
2021/06/11 01:13:47;;;;;;;2.25;1.23;;;;;;;;;;349417;28;1049;-64
2021/06/11 01:13:59;;;;;;;2.13;1.25;;;;;;;;;;348243;28;1516;-64
2021/06/11 01:14:11;;;;;;;1.45;1.30;;;;;;;;;;350737;28;1196;-65
2021/06/11 01:14:24;;;;;;;2.22;1.40;;;;;;;;;;350676;28;983;-67
2021/06/11 01:14:37;;;;;;;2.10;1.27;;;;;;;;;;350546;28;976;-65
2021/06/11 01:14:49;;;;;;;2.10;1.20;;;;;;;;;;349314;28;1293;-65
2021/06/11 01:15:03;;;;;;;1.67;1.10;;;;;;;;;;349278;28;1062;-65
2021/06/11 01:15:17;;;;;;;2.03;1.30;;;;;;;;;;348682;28;16118;-65
2021/06/11 01:15:29;;;;;;;2.15;1.30;;;;;;;;;;350112;28;16711;-64
2021/06/11 01:15:41;;;;;;;1.67;1.27;;;;;;;;;;351977;28;1065;-65
2021/06/11 01:15:54;;;;;;;1.80;1.40;;;;;;;;;;352010;28;1119;-64
2021/06/11 01:16:06;;;;;;;1.67;1.40;;;;;;;;;;352095;28;1004;-63
2021/06/11 01:16:18;;;;;;;1.40;1.30;;;;;;;;;;350642;28;1704;-63
2021/06/11 01:16:30;;;;;;;1.28;1.12;;;;;;;;;;350608;28;1078;-64
2021/06/11 01:16:43;;;;;;;1.90;1.23;;;;;;;;;;350767;28;1120;-64
2021/06/11 01:16:55;;;;;;;2.00;1.33;;;;;;;;;;352054;28;1041;-65
2021/06/11 01:17:07;;;;;;;1.60;1.30;;;;;;;;;;351968;28;1029;-66